sensor_id;sensor_type;location;lat;lon;timestamp;P1;durP1;ratioP1;P2;durP2;ratioP2
26201;SDS011;13944;28.562;77.188;2023-03-01T00:00:00;50.90;;;25.23;;
26201;SDS011;13944;28.562;77.188;2023-03-01T00:02:28;50.65;;;25.63;;
26201;SDS011;13944;28.562;77.188;2023-03-01T00:04:55;57.60;;;25.65;;
26201;SDS011;13944;28.562;77.188;2023-03-01T00:07:22;60.20;;;26.20;;
26201;SDS011;13944;28.562;77.188;2023-03-01T00:09:49;51.30;;;24.67;;
26201;SDS011;13944;28.562;77.188;2023-03-01T00:12:16;54.85;;;24.02;;
26201;SDS011;13944;28.562;77.188;2023-03-01T00:14:43;53.17;;;24.33;;
26201;SDS011;13944;28.562;77.188;2023-03-01T00:17:10;53.08;;;24.33;;
26201;SDS011;13944;28.562;77.188;2023-03-01T00:19:37;53.03;;;26.02;;
26201;SDS011;13944;28.562;77.188;2023-03-01T00:22:04;56.78;;;26.35;;
26201;SDS011;13944;28.562;77.188;2023-03-01T00:24:31;51.38;;;24.42;;
26201;SDS011;13944;28.562;77.188;2023-03-01T00:26:58;50.55;;;23.17;;
26201;SDS011;13944;28.562;77.188;2023-03-01T00:29:25;57.28;;;25.23;;
26201;SDS011;13944;28.562;77.188;2023-03-01T00:31:52;60.72;;;23.98;;
26201;SDS011;13944;28.562;77.188;2023-03-01T00:34:19;52.28;;;24.35;;
26201;SDS011;13944;28.562;77.188;2023-03-01T00:36:46;54.60;;;25.30;;
26201;SDS011;13944;28.562;77.188;2023-03-01T00:39:14;76.13;;;28.73;;
26201;SDS011;13944;28.562;77.188;2023-03-01T00:41:41;76.78;;;33.47;;
26201;SDS011;13944;28.562;77.188;2023-03-01T00:44:09;144.50;;;42.60;;
26201;SDS011;13944;28.562;77.188;2023-03-01T00:46:37;153.60;;;46.00;;
26201;SDS011;13944;28.562;77.188;2023-03-01T00:49:04;126.20;;;45.88;;
26201;SDS011;13944;28.562;77.188;2023-03-01T00:51:31;135.97;;;45.33;;
26201;SDS011;13944;28.562;77.188;2023-03-01T00:53:59;138.90;;;41.33;;
26201;SDS011;13944;28.562;77.188;2023-03-01T00:56:26;115.45;;;40.03;;
26201;SDS011;13944;28.562;77.188;2023-03-01T00:58:53;108.93;;;37.13;;
26201;SDS011;13944;28.562;77.188;2023-03-01T01:01:22;81.97;;;31.97;;
26201;SDS011;13944;28.562;77.188;2023-03-01T01:03:53;96.40;;;32.77;;
26201;SDS011;13944;28.562;77.188;2023-03-01T01:06:22;120.00;;;33.00;;
26201;SDS011;13944;28.562;77.188;2023-03-01T01:08:50;96.93;;;31.47;;
26201;SDS011;13944;28.562;77.188;2023-03-01T01:11:17;87.43;;;30.93;;
26201;SDS011;13944;28.562;77.188;2023-03-01T01:13:45;80.70;;;26.35;;
26201;SDS011;13944;28.562;77.188;2023-03-01T01:16:13;70.28;;;25.52;;
26201;SDS011;13944;28.562;77.188;2023-03-01T01:18:40;66.90;;;25.00;;
26201;SDS011;13944;28.562;77.188;2023-03-01T01:21:08;68.25;;;25.83;;
26201;SDS011;13944;28.562;77.188;2023-03-01T01:23:37;60.28;;;24.38;;
26201;SDS011;13944;28.562;77.188;2023-03-01T01:26:05;67.30;;;24.17;;
26201;SDS011;13944;28.562;77.188;2023-03-01T01:28:33;68.40;;;22.97;;
26201;SDS011;13944;28.562;77.188;2023-03-01T01:31:00;57.47;;;20.85;;
26201;SDS011;13944;28.562;77.188;2023-03-01T01:33:27;48.20;;;21.57;;
26201;SDS011;13944;28.562;77.188;2023-03-01T01:35:54;71.88;;;22.95;;
26201;SDS011;13944;28.562;77.188;2023-03-01T01:38:21;109.75;;;26.95;;
26201;SDS011;13944;28.562;77.188;2023-03-01T01:40:48;72.15;;;23.95;;
26201;SDS011;13944;28.562;77.188;2023-03-01T01:43:20;70.80;;;24.65;;
26201;SDS011;13944;28.562;77.188;2023-03-01T01:45:48;66.50;;;26.70;;
26201;SDS011;13944;28.562;77.188;2023-03-01T01:48:22;59.20;;;24.83;;
26201;SDS011;13944;28.562;77.188;2023-03-01T01:50:53;60.87;;;25.77;;
26201;SDS011;13944;28.562;77.188;2023-03-01T01:53:21;67.30;;;25.42;;
26201;SDS011;13944;28.562;77.188;2023-03-01T01:55:51;50.57;;;23.73;;
26201;SDS011;13944;28.562;77.188;2023-03-01T01:58:20;40.97;;;22.20;;
26201;SDS011;13944;28.562;77.188;2023-03-01T02:00:48;47.70;;;22.67;;
26201;SDS011;13944;28.562;77.188;2023-03-01T02:03:17;46.72;;;21.73;;
26201;SDS011;13944;28.562;77.188;2023-03-01T02:05:54;50.47;;;22.83;;
26201;SDS011;13944;28.562;77.188;2023-03-01T02:08:24;43.25;;;22.63;;
26201;SDS011;13944;28.562;77.188;2023-03-01T02:10:52;41.55;;;22.95;;
26201;SDS011;13944;28.562;77.188;2023-03-01T02:13:19;52.45;;;23.27;;
26201;SDS011;13944;28.562;77.188;2023-03-01T02:15:47;47.40;;;25.48;;
26201;SDS011;13944;28.562;77.188;2023-03-01T02:18:14;46.15;;;22.80;;
26201;SDS011;13944;28.562;77.188;2023-03-01T02:23:16;62.15;;;26.38;;
26201;SDS011;13944;28.562;77.188;2023-03-01T02:30:42;45.08;;;21.60;;
26201;SDS011;13944;28.562;77.188;2023-03-01T02:33:28;46.45;;;24.10;;
26201;SDS011;13944;28.562;77.188;2023-03-01T02:35:58;42.25;;;22.65;;
26201;SDS011;13944;28.562;77.188;2023-03-01T02:38:26;53.95;;;22.80;;
26201;SDS011;13944;28.562;77.188;2023-03-01T02:40:53;52.58;;;21.60;;
26201;SDS011;13944;28.562;77.188;2023-03-01T02:43:22;53.05;;;22.50;;
26201;SDS011;13944;28.562;77.188;2023-03-01T02:45:50;57.45;;;22.50;;
26201;SDS011;13944;28.562;77.188;2023-03-01T02:48:18;55.55;;;22.70;;
26201;SDS011;13944;28.562;77.188;2023-03-01T02:51:05;46.85;;;22.08;;
26201;SDS011;13944;28.562;77.188;2023-03-01T02:53:38;40.38;;;20.27;;
26201;SDS011;13944;28.562;77.188;2023-03-01T02:56:06;44.05;;;20.75;;
26201;SDS011;13944;28.562;77.188;2023-03-01T02:58:39;44.85;;;20.30;;
26201;SDS011;13944;28.562;77.188;2023-03-01T03:01:14;44.40;;;19.15;;
26201;SDS011;13944;28.562;77.188;2023-03-01T03:03:41;46.40;;;20.70;;
26201;SDS011;13944;28.562;77.188;2023-03-01T03:06:08;48.30;;;21.00;;
26201;SDS011;13944;28.562;77.188;2023-03-01T03:08:36;39.47;;;19.38;;
26201;SDS011;13944;28.562;77.188;2023-03-01T03:11:03;45.67;;;20.50;;
26201;SDS011;13944;28.562;77.188;2023-03-01T03:13:30;55.80;;;21.98;;
26201;SDS011;13944;28.562;77.188;2023-03-01T03:15:57;51.08;;;24.08;;
26201;SDS011;13944;28.562;77.188;2023-03-01T03:18:24;53.97;;;22.10;;
26201;SDS011;13944;28.562;77.188;2023-03-01T03:20:52;47.93;;;24.33;;
26201;SDS011;13944;28.562;77.188;2023-03-01T03:23:20;55.07;;;25.00;;
26201;SDS011;13944;28.562;77.188;2023-03-01T03:25:48;61.20;;;26.15;;
26201;SDS011;13944;28.562;77.188;2023-03-01T03:28:15;57.42;;;26.90;;
26201;SDS011;13944;28.562;77.188;2023-03-01T03:30:42;61.40;;;25.65;;
26201;SDS011;13944;28.562;77.188;2023-03-01T03:33:10;57.55;;;28.02;;
26201;SDS011;13944;28.562;77.188;2023-03-01T03:35:39;65.95;;;29.17;;
26201;SDS011;13944;28.562;77.188;2023-03-01T03:38:07;73.70;;;31.05;;
26201;SDS011;13944;28.562;77.188;2023-03-01T03:40:44;75.35;;;33.67;;
26201;SDS011;13944;28.562;77.188;2023-03-01T03:43:16;89.38;;;35.50;;
26201;SDS011;13944;28.562;77.188;2023-03-01T03:45:44;74.88;;;33.45;;
26201;SDS011;13944;28.562;77.188;2023-03-01T03:48:11;87.50;;;32.42;;
26201;SDS011;13944;28.562;77.188;2023-03-01T03:50:38;70.60;;;29.23;;
26201;SDS011;13944;28.562;77.188;2023-03-01T03:53:07;71.40;;;27.90;;
26201;SDS011;13944;28.562;77.188;2023-03-01T03:55:35;58.92;;;25.27;;
26201;SDS011;13944;28.562;77.188;2023-03-01T03:58:05;57.50;;;25.88;;
26201;SDS011;13944;28.562;77.188;2023-03-01T04:00:33;48.33;;;24.35;;
26201;SDS011;13944;28.562;77.188;2023-03-01T04:03:00;50.67;;;27.83;;
26201;SDS011;13944;28.562;77.188;2023-03-01T04:05:27;59.03;;;29.30;;
26201;SDS011;13944;28.562;77.188;2023-03-01T04:07:55;55.78;;;27.77;;
26201;SDS011;13944;28.562;77.188;2023-03-01T04:10:33;62.88;;;28.73;;
26201;SDS011;13944;28.562;77.188;2023-03-01T04:13:02;58.55;;;28.25;;
26201;SDS011;13944;28.562;77.188;2023-03-01T04:15:29;68.05;;;29.85;;
26201;SDS011;13944;28.562;77.188;2023-03-01T04:17:57;56.13;;;28.92;;
26201;SDS011;13944;28.562;77.188;2023-03-01T04:20:26;66.15;;;31.08;;
26201;SDS011;13944;28.562;77.188;2023-03-01T04:23:07;59.03;;;30.15;;
26201;SDS011;13944;28.562;77.188;2023-03-01T04:25:48;66.63;;;31.77;;
26201;SDS011;13944;28.562;77.188;2023-03-01T04:28:22;58.55;;;30.88;;
26201;SDS011;13944;28.562;77.188;2023-03-01T04:30:50;66.22;;;30.80;;
26201;SDS011;13944;28.562;77.188;2023-03-01T04:33:17;57.05;;;27.73;;
26201;SDS011;13944;28.562;77.188;2023-03-01T04:35:45;53.00;;;29.25;;
26201;SDS011;13944;28.562;77.188;2023-03-01T04:38:15;64.97;;;31.05;;
26201;SDS011;13944;28.562;77.188;2023-03-01T04:40:42;64.68;;;30.08;;
26201;SDS011;13944;28.562;77.188;2023-03-01T04:43:10;58.53;;;29.55;;
26201;SDS011;13944;28.562;77.188;2023-03-01T04:45:39;74.78;;;29.90;;
26201;SDS011;13944;28.562;77.188;2023-03-01T04:48:07;57.20;;;28.48;;
26201;SDS011;13944;28.562;77.188;2023-03-01T04:50:34;50.53;;;27.73;;
26201;SDS011;13944;28.562;77.188;2023-03-01T04:53:01;55.70;;;24.92;;
26201;SDS011;13944;28.562;77.188;2023-03-01T04:55:29;47.15;;;24.35;;
26201;SDS011;13944;28.562;77.188;2023-03-01T04:57:56;58.08;;;24.55;;
26201;SDS011;13944;28.562;77.188;2023-03-01T05:00:24;57.33;;;26.55;;
26201;SDS011;13944;28.562;77.188;2023-03-01T05:02:59;53.40;;;25.27;;
26201;SDS011;13944;28.562;77.188;2023-03-01T05:05:27;53.47;;;27.83;;
26201;SDS011;13944;28.562;77.188;2023-03-01T05:07:55;61.10;;;28.55;;
26201;SDS011;13944;28.562;77.188;2023-03-01T05:10:22;63.20;;;27.50;;
26201;SDS011;13944;28.562;77.188;2023-03-01T05:12:50;55.53;;;28.35;;
26201;SDS011;13944;28.562;77.188;2023-03-01T05:15:20;53.35;;;29.23;;
26201;SDS011;13944;28.562;77.188;2023-03-01T05:17:48;43.20;;;24.95;;
26201;SDS011;13944;28.562;77.188;2023-03-01T05:20:15;59.40;;;29.85;;
26201;SDS011;13944;28.562;77.188;2023-03-01T05:22:42;53.03;;;27.33;;
26201;SDS011;13944;28.562;77.188;2023-03-01T05:25:09;57.63;;;28.08;;
26201;SDS011;13944;28.562;77.188;2023-03-01T05:27:39;48.97;;;27.13;;
26201;SDS011;13944;28.562;77.188;2023-03-01T05:30:06;47.85;;;25.75;;
26201;SDS011;13944;28.562;77.188;2023-03-01T05:32:44;50.05;;;26.70;;
26201;SDS011;13944;28.562;77.188;2023-03-01T05:35:15;44.70;;;26.02;;
26201;SDS011;13944;28.562;77.188;2023-03-01T05:37:43;53.05;;;26.33;;
26201;SDS011;13944;28.562;77.188;2023-03-01T05:40:11;53.05;;;26.52;;
26201;SDS011;13944;28.562;77.188;2023-03-01T05:42:45;75.35;;;29.40;;
26201;SDS011;13944;28.562;77.188;2023-03-01T05:45:13;56.70;;;26.35;;
26201;SDS011;13944;28.562;77.188;2023-03-01T05:47:41;57.90;;;31.92;;
26201;SDS011;13944;28.562;77.188;2023-03-01T05:50:16;48.35;;;29.13;;
26201;SDS011;13944;28.562;77.188;2023-03-01T05:52:50;54.10;;;29.83;;
26201;SDS011;13944;28.562;77.188;2023-03-01T05:55:18;52.65;;;27.45;;
26201;SDS011;13944;28.562;77.188;2023-03-01T05:57:46;47.72;;;27.70;;
26201;SDS011;13944;28.562;77.188;2023-03-01T06:00:14;42.72;;;24.55;;
26201;SDS011;13944;28.562;77.188;2023-03-01T06:02:41;47.42;;;26.35;;
26201;SDS011;13944;28.562;77.188;2023-03-01T06:05:08;59.38;;;27.13;;
26201;SDS011;13944;28.562;77.188;2023-03-01T06:07:36;45.85;;;26.67;;
26201;SDS011;13944;28.562;77.188;2023-03-01T06:10:03;46.20;;;25.75;;
26201;SDS011;13944;28.562;77.188;2023-03-01T06:12:35;48.60;;;26.63;;
26201;SDS011;13944;28.562;77.188;2023-03-01T06:15:02;47.63;;;27.08;;
26201;SDS011;13944;28.562;77.188;2023-03-01T06:17:30;55.17;;;29.90;;
26201;SDS011;13944;28.562;77.188;2023-03-01T06:19:58;54.38;;;30.27;;
26201;SDS011;13944;28.562;77.188;2023-03-01T06:22:26;48.63;;;27.92;;
26201;SDS011;13944;28.562;77.188;2023-03-01T06:24:53;53.40;;;29.27;;
26201;SDS011;13944;28.562;77.188;2023-03-01T06:27:21;52.83;;;26.73;;
26201;SDS011;13944;28.562;77.188;2023-03-01T06:29:48;52.95;;;27.63;;
26201;SDS011;13944;28.562;77.188;2023-03-01T06:32:15;52.72;;;28.02;;
26201;SDS011;13944;28.562;77.188;2023-03-01T06:34:42;47.03;;;26.85;;
26201;SDS011;13944;28.562;77.188;2023-03-01T06:37:09;53.40;;;27.70;;
26201;SDS011;13944;28.562;77.188;2023-03-01T06:39:36;51.15;;;27.00;;
26201;SDS011;13944;28.562;77.188;2023-03-01T06:42:04;49.13;;;26.88;;
26201;SDS011;13944;28.562;77.188;2023-03-01T06:44:31;42.35;;;26.25;;
26201;SDS011;13944;28.562;77.188;2023-03-01T06:46:59;50.47;;;29.83;;
26201;SDS011;13944;28.562;77.188;2023-03-01T06:49:26;46.58;;;27.08;;
26201;SDS011;13944;28.562;77.188;2023-03-01T06:51:53;51.03;;;28.88;;
26201;SDS011;13944;28.562;77.188;2023-03-01T06:54:20;54.55;;;29.63;;
26201;SDS011;13944;28.562;77.188;2023-03-01T06:56:50;49.03;;;28.83;;
26201;SDS011;13944;28.562;77.188;2023-03-01T06:59:17;44.70;;;25.60;;
26201;SDS011;13944;28.562;77.188;2023-03-01T07:01:44;49.45;;;26.27;;
26201;SDS011;13944;28.562;77.188;2023-03-01T07:04:12;47.17;;;24.80;;
26201;SDS011;13944;28.562;77.188;2023-03-01T07:06:39;47.03;;;27.30;;
26201;SDS011;13944;28.562;77.188;2023-03-01T07:09:06;46.10;;;25.90;;
26201;SDS011;13944;28.562;77.188;2023-03-01T07:11:34;48.83;;;27.15;;
26201;SDS011;13944;28.562;77.188;2023-03-01T07:14:01;50.95;;;26.75;;
26201;SDS011;13944;28.562;77.188;2023-03-01T07:16:29;44.10;;;24.73;;
26201;SDS011;13944;28.562;77.188;2023-03-01T07:18:56;47.67;;;24.85;;
26201;SDS011;13944;28.562;77.188;2023-03-01T07:21:24;46.55;;;24.75;;
26201;SDS011;13944;28.562;77.188;2023-03-01T07:23:51;53.28;;;23.92;;
26201;SDS011;13944;28.562;77.188;2023-03-01T07:26:18;49.08;;;26.30;;
26201;SDS011;13944;28.562;77.188;2023-03-01T07:28:45;48.60;;;25.73;;
26201;SDS011;13944;28.562;77.188;2023-03-01T07:31:12;44.63;;;26.02;;
26201;SDS011;13944;28.562;77.188;2023-03-01T07:33:39;46.90;;;25.63;;
26201;SDS011;13944;28.562;77.188;2023-03-01T07:36:06;50.38;;;25.83;;
26201;SDS011;13944;28.562;77.188;2023-03-01T07:38:33;42.60;;;25.83;;
26201;SDS011;13944;28.562;77.188;2023-03-01T07:41:01;43.30;;;24.35;;
26201;SDS011;13944;28.562;77.188;2023-03-01T07:43:29;50.03;;;26.73;;
26201;SDS011;13944;28.562;77.188;2023-03-01T07:46:00;52.00;;;26.35;;
26201;SDS011;13944;28.562;77.188;2023-03-01T07:48:27;61.95;;;26.65;;
26201;SDS011;13944;28.562;77.188;2023-03-01T07:50:57;52.13;;;25.73;;
26201;SDS011;13944;28.562;77.188;2023-03-01T07:53:25;48.45;;;26.08;;
26201;SDS011;13944;28.562;77.188;2023-03-01T07:56:05;55.53;;;28.33;;
26201;SDS011;13944;28.562;77.188;2023-03-01T07:58:40;50.92;;;26.95;;
26201;SDS011;13944;28.562;77.188;2023-03-01T08:01:08;46.15;;;24.65;;
26201;SDS011;13944;28.562;77.188;2023-03-01T08:03:36;45.30;;;26.17;;
26201;SDS011;13944;28.562;77.188;2023-03-01T08:06:03;45.92;;;24.67;;
26201;SDS011;13944;28.562;77.188;2023-03-01T08:08:31;45.53;;;25.70;;
26201;SDS011;13944;28.562;77.188;2023-03-01T08:10:58;45.33;;;25.90;;
26201;SDS011;13944;28.562;77.188;2023-03-01T08:13:25;52.83;;;27.25;;
26201;SDS011;13944;28.562;77.188;2023-03-01T08:15:53;45.85;;;25.42;;
26201;SDS011;13944;28.562;77.188;2023-03-01T08:18:20;45.10;;;25.90;;
26201;SDS011;13944;28.562;77.188;2023-03-01T08:20:47;50.28;;;27.65;;
26201;SDS011;13944;28.562;77.188;2023-03-01T08:23:14;50.03;;;26.70;;
26201;SDS011;13944;28.562;77.188;2023-03-01T08:25:41;49.55;;;28.98;;
26201;SDS011;13944;28.562;77.188;2023-03-01T08:28:09;49.90;;;27.85;;
26201;SDS011;13944;28.562;77.188;2023-03-01T08:30:36;53.95;;;29.40;;
26201;SDS011;13944;28.562;77.188;2023-03-01T08:33:03;49.05;;;29.77;;
26201;SDS011;13944;28.562;77.188;2023-03-01T08:35:30;45.72;;;28.52;;
26201;SDS011;13944;28.562;77.188;2023-03-01T08:37:57;49.25;;;28.42;;
26201;SDS011;13944;28.562;77.188;2023-03-01T08:40:24;47.67;;;28.15;;
26201;SDS011;13944;28.562;77.188;2023-03-01T08:42:51;48.90;;;28.48;;
26201;SDS011;13944;28.562;77.188;2023-03-01T08:45:18;50.95;;;30.23;;
26201;SDS011;13944;28.562;77.188;2023-03-01T08:47:45;53.00;;;28.77;;
26201;SDS011;13944;28.562;77.188;2023-03-01T08:50:12;56.00;;;29.65;;
26201;SDS011;13944;28.562;77.188;2023-03-01T08:52:39;51.53;;;30.30;;
26201;SDS011;13944;28.562;77.188;2023-03-01T08:55:06;48.20;;;28.27;;
26201;SDS011;13944;28.562;77.188;2023-03-01T08:57:33;53.83;;;27.00;;
26201;SDS011;13944;28.562;77.188;2023-03-01T09:00:00;46.03;;;27.58;;
26201;SDS011;13944;28.562;77.188;2023-03-01T09:02:28;56.03;;;34.03;;
26201;SDS011;13944;28.562;77.188;2023-03-01T09:04:55;53.72;;;31.75;;
26201;SDS011;13944;28.562;77.188;2023-03-01T09:07:22;47.03;;;28.58;;
26201;SDS011;13944;28.562;77.188;2023-03-01T09:09:53;50.63;;;28.30;;
26201;SDS011;13944;28.562;77.188;2023-03-01T09:12:21;50.42;;;27.67;;
26201;SDS011;13944;28.562;77.188;2023-03-01T09:14:48;52.47;;;26.25;;
26201;SDS011;13944;28.562;77.188;2023-03-01T09:17:15;45.10;;;26.70;;
26201;SDS011;13944;28.562;77.188;2023-03-01T09:19:42;48.05;;;26.17;;
26201;SDS011;13944;28.562;77.188;2023-03-01T09:22:09;60.25;;;30.63;;
26201;SDS011;13944;28.562;77.188;2023-03-01T09:24:36;61.30;;;30.63;;
26201;SDS011;13944;28.562;77.188;2023-03-01T09:27:03;55.15;;;28.60;;
26201;SDS011;13944;28.562;77.188;2023-03-01T09:29:35;57.42;;;32.65;;
26201;SDS011;13944;28.562;77.188;2023-03-01T09:32:02;53.38;;;31.40;;
26201;SDS011;13944;28.562;77.188;2023-03-01T09:34:29;49.45;;;30.38;;
26201;SDS011;13944;28.562;77.188;2023-03-01T09:36:57;46.20;;;25.58;;
26201;SDS011;13944;28.562;77.188;2023-03-01T09:39:25;43.88;;;25.23;;
26201;SDS011;13944;28.562;77.188;2023-03-01T09:41:58;52.35;;;26.38;;
26201;SDS011;13944;28.562;77.188;2023-03-01T09:44:36;58.75;;;25.33;;
26201;SDS011;13944;28.562;77.188;2023-03-01T09:47:05;40.28;;;24.52;;
26201;SDS011;13944;28.562;77.188;2023-03-01T09:49:36;40.50;;;22.90;;
26201;SDS011;13944;28.562;77.188;2023-03-01T09:54:39;39.63;;;23.33;;
26201;SDS011;13944;28.562;77.188;2023-03-01T09:57:11;40.03;;;22.20;;
26201;SDS011;13944;28.562;77.188;2023-03-01T10:10:33;38.97;;;21.88;;
26201;SDS011;13944;28.562;77.188;2023-03-01T10:13:45;39.17;;;22.52;;
26201;SDS011;13944;28.562;77.188;2023-03-01T10:15:55;38.97;;;23.73;;
26201;SDS011;13944;28.562;77.188;2023-03-01T10:18:26;38.65;;;22.63;;
26201;SDS011;13944;28.562;77.188;2023-03-01T10:21:01;50.30;;;24.70;;
26201;SDS011;13944;28.562;77.188;2023-03-01T10:23:31;42.00;;;22.88;;
26201;SDS011;13944;28.562;77.188;2023-03-01T10:26:21;45.67;;;25.60;;
26201;SDS011;13944;28.562;77.188;2023-03-01T10:28:54;52.67;;;25.83;;
26201;SDS011;13944;28.562;77.188;2023-03-01T10:31:27;49.08;;;24.33;;
26201;SDS011;13944;28.562;77.188;2023-03-01T10:34:04;52.75;;;24.80;;
26201;SDS011;13944;28.562;77.188;2023-03-01T10:36:32;47.80;;;24.70;;
26201;SDS011;13944;28.562;77.188;2023-03-01T10:39:02;45.05;;;25.85;;
26201;SDS011;13944;28.562;77.188;2023-03-01T10:41:40;45.05;;;24.70;;
26201;SDS011;13944;28.562;77.188;2023-03-01T10:44:34;43.13;;;22.40;;
26201;SDS011;13944;28.562;77.188;2023-03-01T10:47:01;55.72;;;27.35;;
26201;SDS011;13944;28.562;77.188;2023-03-01T10:49:29;40.92;;;24.58;;
26201;SDS011;13944;28.562;77.188;2023-03-01T10:51:56;47.08;;;25.60;;
26201;SDS011;13944;28.562;77.188;2023-03-01T10:54:37;48.72;;;25.45;;
26201;SDS011;13944;28.562;77.188;2023-03-01T10:57:10;44.35;;;23.40;;
26201;SDS011;13944;28.562;77.188;2023-03-01T11:00:00;41.53;;;23.02;;
26201;SDS011;13944;28.562;77.188;2023-03-01T11:02:29;45.03;;;26.25;;
26201;SDS011;13944;28.562;77.188;2023-03-01T11:04:59;50.08;;;26.45;;
26201;SDS011;13944;28.562;77.188;2023-03-01T11:07:27;40.00;;;23.70;;
26201;SDS011;13944;28.562;77.188;2023-03-01T11:09:54;41.38;;;24.33;;
26201;SDS011;13944;28.562;77.188;2023-03-01T11:12:21;39.17;;;24.05;;
26201;SDS011;13944;28.562;77.188;2023-03-01T11:14:50;43.80;;;25.35;;
26201;SDS011;13944;28.562;77.188;2023-03-01T11:20:15;41.47;;;24.55;;
26201;SDS011;13944;28.562;77.188;2023-03-01T11:22:36;44.78;;;24.98;;
26201;SDS011;13944;28.562;77.188;2023-03-01T11:25:03;51.42;;;25.77;;
26201;SDS011;13944;28.562;77.188;2023-03-01T11:27:35;45.50;;;25.00;;
26201;SDS011;13944;28.562;77.188;2023-03-01T11:30:13;48.22;;;25.42;;
26201;SDS011;13944;28.562;77.188;2023-03-01T11:32:45;42.60;;;27.33;;
26201;SDS011;13944;28.562;77.188;2023-03-01T11:35:17;42.08;;;26.20;;
26201;SDS011;13944;28.562;77.188;2023-03-01T11:40:18;46.80;;;25.70;;
26201;SDS011;13944;28.562;77.188;2023-03-01T11:45:15;47.40;;;27.08;;
26201;SDS011;13944;28.562;77.188;2023-03-01T11:55:54;45.67;;;26.30;;
26201;SDS011;13944;28.562;77.188;2023-03-01T12:01:11;58.00;;;26.13;;
26201;SDS011;13944;28.562;77.188;2023-03-01T12:16:40;59.20;;;28.10;;
26201;SDS011;13944;28.562;77.188;2023-03-01T12:19:15;66.30;;;31.52;;
26201;SDS011;13944;28.562;77.188;2023-03-01T12:24:24;69.78;;;29.25;;
26201;SDS011;13944;28.562;77.188;2023-03-01T12:29:35;91.68;;;34.95;;
26201;SDS011;13944;28.562;77.188;2023-03-01T12:37:21;108.53;;;34.97;;
26201;SDS011;13944;28.562;77.188;2023-03-01T12:47:31;85.55;;;37.97;;
26201;SDS011;13944;28.562;77.188;2023-03-01T12:50:05;90.40;;;36.38;;
26201;SDS011;13944;28.562;77.188;2023-03-01T12:55:24;83.47;;;37.75;;
26201;SDS011;13944;28.562;77.188;2023-03-01T13:00:38;92.20;;;36.42;;
26201;SDS011;13944;28.562;77.188;2023-03-01T13:05:39;81.63;;;36.70;;
26201;SDS011;13944;28.562;77.188;2023-03-01T13:08:29;82.20;;;36.70;;
26201;SDS011;13944;28.562;77.188;2023-03-01T13:11:03;101.32;;;38.65;;
26201;SDS011;13944;28.562;77.188;2023-03-01T13:13:31;90.50;;;37.28;;
26201;SDS011;13944;28.562;77.188;2023-03-01T13:16:11;94.57;;;39.35;;
26201;SDS011;13944;28.562;77.188;2023-03-01T13:18:44;97.63;;;40.00;;
26201;SDS011;13944;28.562;77.188;2023-03-01T13:21:12;90.43;;;42.13;;
26201;SDS011;13944;28.562;77.188;2023-03-01T13:23:39;103.45;;;42.30;;
26201;SDS011;13944;28.562;77.188;2023-03-01T13:26:11;93.35;;;41.38;;
26201;SDS011;13944;28.562;77.188;2023-03-01T13:33:45;101.53;;;42.88;;
26201;SDS011;13944;28.562;77.188;2023-03-01T13:37:08;100.97;;;42.78;;
26201;SDS011;13944;28.562;77.188;2023-03-01T13:39:02;94.97;;;43.78;;
26201;SDS011;13944;28.562;77.188;2023-03-01T13:44:25;113.82;;;47.88;;
26201;SDS011;13944;28.562;77.188;2023-03-01T13:46:55;118.15;;;50.85;;
26201;SDS011;13944;28.562;77.188;2023-03-01T13:49:25;123.35;;;53.50;;
26201;SDS011;13944;28.562;77.188;2023-03-01T13:51:53;126.13;;;52.70;;
26201;SDS011;13944;28.562;77.188;2023-03-01T13:54:28;127.22;;;57.50;;
26201;SDS011;13944;28.562;77.188;2023-03-01T13:56:56;140.60;;;63.03;;
26201;SDS011;13944;28.562;77.188;2023-03-01T13:59:24;154.05;;;73.35;;
26201;SDS011;13944;28.562;77.188;2023-03-01T14:01:56;172.50;;;84.43;;
26201;SDS011;13944;28.562;77.188;2023-03-01T14:04:26;186.95;;;90.28;;
26201;SDS011;13944;28.562;77.188;2023-03-01T14:07:38;190.27;;;95.83;;
26201;SDS011;13944;28.562;77.188;2023-03-01T14:09:41;192.98;;;95.60;;
26201;SDS011;13944;28.562;77.188;2023-03-01T14:14:52;195.30;;;95.80;;
26201;SDS011;13944;28.562;77.188;2023-03-01T14:18:36;207.05;;;104.38;;
26201;SDS011;13944;28.562;77.188;2023-03-01T14:21:08;193.07;;;101.75;;
26201;SDS011;13944;28.562;77.188;2023-03-01T14:23:37;182.95;;;99.45;;
26201;SDS011;13944;28.562;77.188;2023-03-01T14:26:05;199.50;;;105.13;;
26201;SDS011;13944;28.562;77.188;2023-03-01T14:28:37;202.82;;;109.68;;
26201;SDS011;13944;28.562;77.188;2023-03-01T14:31:50;220.75;;;119.15;;
26201;SDS011;13944;28.562;77.188;2023-03-01T14:33:55;213.50;;;116.13;;
26201;SDS011;13944;28.562;77.188;2023-03-01T14:36:26;218.23;;;110.47;;
26201;SDS011;13944;28.562;77.188;2023-03-01T14:38:53;234.10;;;110.68;;
26201;SDS011;13944;28.562;77.188;2023-03-01T14:41:25;215.85;;;114.53;;
26201;SDS011;13944;28.562;77.188;2023-03-01T14:43:58;221.98;;;112.85;;
26201;SDS011;13944;28.562;77.188;2023-03-01T14:46:36;194.45;;;98.30;;
26201;SDS011;13944;28.562;77.188;2023-03-01T14:51:42;181.98;;;93.78;;
26201;SDS011;13944;28.562;77.188;2023-03-01T14:56:50;191.63;;;99.88;;
26201;SDS011;13944;28.562;77.188;2023-03-01T14:59:21;193.65;;;104.30;;
26201;SDS011;13944;28.562;77.188;2023-03-01T15:01:54;198.00;;;103.68;;
26201;SDS011;13944;28.562;77.188;2023-03-01T15:04:22;207.13;;;106.57;;
26201;SDS011;13944;28.562;77.188;2023-03-01T15:06:51;202.85;;;106.25;;
26201;SDS011;13944;28.562;77.188;2023-03-01T15:09:18;201.27;;;107.90;;
26201;SDS011;13944;28.562;77.188;2023-03-01T15:11:45;215.10;;;116.88;;
26201;SDS011;13944;28.562;77.188;2023-03-01T15:14:25;222.52;;;112.35;;
26201;SDS011;13944;28.562;77.188;2023-03-01T15:16:53;202.60;;;107.55;;
26201;SDS011;13944;28.562;77.188;2023-03-01T15:19:20;205.20;;;107.45;;
26201;SDS011;13944;28.562;77.188;2023-03-01T15:21:50;197.13;;;105.00;;
26201;SDS011;13944;28.562;77.188;2023-03-01T15:24:20;209.43;;;107.18;;
26201;SDS011;13944;28.562;77.188;2023-03-01T15:26:53;188.68;;;98.03;;
26201;SDS011;13944;28.562;77.188;2023-03-01T15:29:24;171.82;;;98.80;;
26201;SDS011;13944;28.562;77.188;2023-03-01T15:34:28;176.77;;;91.43;;
26201;SDS011;13944;28.562;77.188;2023-03-01T15:36:56;180.90;;;93.22;;
26201;SDS011;13944;28.562;77.188;2023-03-01T15:42:05;179.25;;;99.32;;
26201;SDS011;13944;28.562;77.188;2023-03-01T15:44:33;185.05;;;98.45;;
26201;SDS011;13944;28.562;77.188;2023-03-01T15:47:01;172.23;;;94.82;;
26201;SDS011;13944;28.562;77.188;2023-03-01T15:49:39;181.85;;;99.65;;
26201;SDS011;13944;28.562;77.188;2023-03-01T15:52:21;183.45;;;98.00;;
26201;SDS011;13944;28.562;77.188;2023-03-01T15:55:01;204.57;;;98.97;;
26201;SDS011;13944;28.562;77.188;2023-03-01T15:57:29;189.52;;;101.13;;
26201;SDS011;13944;28.562;77.188;2023-03-01T15:59:56;187.68;;;99.63;;